KPIA

General Downing - Peoria International Airport

Peoria, Illinois, USA
METAR KPIA 200454Z 00000KT 10SM R04/6000VP6000FT CLR 23/22 A2990 RMK AO2 SLP119 T02280217
Observed Flight Rules
Jun-20 @ 04:54 UTC (47 minutes ago) Visual Flight Rules
Visibility Clouds
10 miles
  • Clear skies
Temperatures Readings
Current 23°C / 73°F
Dewpoint 22°C / 72°F
Humidity 94%
Altimeter 29.9" Hg
Pressure 1011.9 hPa
Elevation 205
METAR KPIA 200454Z 00000KT 10SM R04/6000VP6000FT CLR 23/22 A2990 RMK AO2 SLP119 T02280217
Observed Flight Rules
Jun-20 @ 04:54 UTC
(47 minutes ago)
VFR
Clouds
  • Clear skies
Temperature Dewpoint
23°C / 73°F 22°C / 72°F
Humidity Altimeter Pressure
94% 29.9" Hg 1011.9 hPa